Time;durP1;ratioP1;P1;durP2;ratioP2;P2;SDS_P1;SDS_P2;PMS_P1;PMS_P2;Temp;Humidity;BMP_temperature;BMP_pressure;BME280_temperature;BME280_humidity;BME280_pressure;Samples;Min_cycle;Max_cycle;Signal;HPM_P1;HPM_P2
2022/07/11 00:01:33;;;;;;;9.10;5.22;;;;;;;16.89;85.79;102290.38;5114564;28;20269;-60
2022/07/11 00:03:58;;;;;;;10.05;5.32;;;;;;;16.84;85.91;102290.44;5114688;28;20032;-60
2022/07/11 00:06:23;;;;;;;7.78;5.10;;;;;;;16.85;86.18;102294.81;5114785;28;20344;-60
2022/07/11 00:08:49;;;;;;;6.85;5.45;;;;;;;16.85;86.51;102296.59;5114855;28;20105;-61
2022/07/11 00:11:14;;;;;;;12.57;5.97;;;;;;;16.78;86.81;102294.97;5114581;28;20438;-61
2022/07/11 00:13:39;;;;;;;9.88;6.07;;;;;;;16.75;86.79;102292.38;5117885;28;20075;-61
2022/07/11 00:16:05;;;;;;;7.80;5.67;;;;;;;16.67;87.99;102285.41;5118535;28;20032;-61
2022/07/11 00:18:30;;;;;;;7.57;5.40;;;;;;;16.73;87.49;102280.94;5118186;28;20599;-60
2022/07/11 00:20:55;;;;;;;10.25;5.93;;;;;;;16.70;87.51;102289.78;5118158;28;20043;-60
2022/07/11 00:23:21;;;;;;;10.02;6.05;;;;;;;16.66;88.17;102286.31;5118426;28;20034;-60
2022/07/11 00:25:47;;;;;;;9.63;6.18;;;;;;;16.62;88.25;102284.56;5118014;28;20034;-61
2022/07/11 00:28:12;;;;;;;8.80;6.10;;;;;;;16.53;89.11;102275.91;5118118;28;20051;-62
2022/07/11 00:30:38;;;;;;;11.98;6.28;;;;;;;16.49;88.97;102266.28;5117713;28;20035;-61
2022/07/11 00:33:03;;;;;;;12.17;6.60;;;;;;;16.50;88.83;102273.31;5117920;28;20027;-62
2022/07/11 00:35:28;;;;;;;14.03;6.50;;;;;;;16.47;89.25;102271.59;5118319;28;20716;-62
2022/07/11 00:37:53;;;;;;;10.10;6.70;;;;;;;16.44;89.60;102271.66;5117915;28;20280;-61
2022/07/11 00:40:19;;;;;;;10.07;6.35;;;;;;;16.44;89.48;102268.16;5117640;28;20092;-61
2022/07/11 00:42:45;;;;;;;11.93;6.85;;;;;;;16.46;89.04;102266.31;5118000;28;20023;-61
2022/07/11 00:45:10;;;;;;;9.90;6.88;;;;;;;16.42;89.50;102264.66;5117662;28;20354;-60
2022/07/11 00:47:35;;;;;;;11.10;7.05;;;;;;;16.39;90.07;102269.97;5117878;28;20073;-60
2022/07/11 00:50:01;;;;;;;13.82;6.82;;;;;;;16.31;90.02;102265.66;5117566;28;20077;-60
2022/07/11 00:52:26;;;;;;;8.63;6.50;;;;;;;16.35;90.48;102272.66;5117439;28;20039;-60
2022/07/11 00:54:52;;;;;;;12.27;7.32;;;;;;;16.33;90.33;102268.28;5117568;28;20027;-61
2022/07/11 00:57:17;;;;;;;12.38;6.63;;;;;;;16.37;90.67;102267.34;5099442;28;20027;-60
2022/07/11 00:59:44;;;;;;;9.73;6.78;;;;;;;16.30;90.93;102277.13;5117514;28;20063;-61
2022/07/11 01:02:09;;;;;;;10.60;6.78;;;;;;;16.29;90.55;102270.09;5117554;28;20042;-60
2022/07/11 01:04:34;;;;;;;11.07;6.78;;;;;;;16.26;90.88;102262.25;5117484;28;20118;-59
2022/07/11 01:07:00;;;;;;;9.15;6.68;;;;;;;16.19;91.66;102257.91;5117425;28;20110;-60
2022/07/11 01:09:25;;;;;;;11.93;7.35;;;;;;;16.22;91.52;102257.88;5117284;28;20051;-61
2022/07/11 01:11:51;;;;;;;11.50;8.02;;;;;;;16.18;91.94;102266.75;5117517;28;20028;-61
2022/07/11 01:14:18;;;;;;;11.75;7.45;;;;;;;16.20;91.64;102261.44;5117195;28;20119;-62
2022/07/11 01:16:43;;;;;;;10.20;7.70;;;;;;;16.19;91.50;102267.63;5117042;28;20084;-61
2022/07/11 01:19:09;;;;;;;10.63;7.75;;;;;;;16.17;91.94;102266.75;5116855;28;20035;-60
2022/07/11 01:21:38;;;;;;;10.25;7.03;;;;;;;16.18;92.19;102263.22;5117751;28;20032;-60
2022/07/11 01:24:05;;;;;;;12.25;7.63;;;;;;;16.10;92.57;102254.56;5115894;28;20438;-61
2022/07/11 01:26:32;;;;;;;12.02;7.90;;;;;;;16.05;92.73;102248.44;5116895;28;20043;-60
2022/07/11 01:29:06;;;;;;;13.50;8.30;;;;;;;16.08;92.77;102256.34;5116758;28;20096;-60
2022/07/11 01:31:31;;;;;;;15.50;7.68;;;;;;;16.00;93.02;102256.41;5116725;28;20028;-61
2022/07/11 01:33:58;;;;;;;16.27;7.82;;;;;;;15.99;93.46;102257.31;5116906;28;20051;-61
2022/07/11 01:36:23;;;;;;;15.23;8.30;;;;;;;16.05;93.28;102254.59;5117049;28;20035;-60
2022/07/11 01:38:48;;;;;;;13.35;8.90;;;;;;;15.98;93.08;102258.22;5116560;28;20124;-61
2022/07/11 01:41:14;;;;;;;12.63;8.27;;;;;;;15.92;93.46;102255.66;5116629;28;20049;-61
2022/07/11 01:43:39;;;;;;;10.10;7.70;;;;;;;15.92;93.55;102255.66;5116504;28;20024;-61
2022/07/11 01:46:04;;;;;;;12.35;8.07;;;;;;;15.91;93.72;102257.44;5116729;28;20023;-61
2022/07/11 01:48:30;;;;;;;11.40;8.02;;;;;;;15.86;93.75;102256.59;5116352;28;20024;-60
2022/07/11 01:50:55;;;;;;;10.48;7.60;;;;;;;15.82;94.12;102264.56;5116489;28;20061;-61
2022/07/11 01:53:20;;;;;;;13.85;8.70;;;;;;;15.84;93.72;102262.78;5116312;28;20038;-59
2022/07/11 01:55:46;;;;;;;13.52;8.43;;;;;;;15.79;94.40;102272.53;5115977;28;20343;-60
2022/07/11 01:58:11;;;;;;;12.15;8.40;;;;;;;15.76;94.60;102267.31;5116668;28;20024;-62
2022/07/11 02:00:36;;;;;;;15.02;9.05;;;;;;;15.69;95.37;102268.25;5116543;28;20036;-60
2022/07/11 02:03:01;;;;;;;13.75;8.60;;;;;;;15.66;95.68;102266.53;5116156;28;20315;-62
2022/07/11 02:05:27;;;;;;;13.55;9.02;;;;;;;15.65;95.15;102270.94;5116313;28;20549;-61
2022/07/11 02:10:36;;;;;;;12.70;9.23;;;;;;;15.64;96.12;102274.47;5116259;28;20038;-60
2022/07/11 02:13:02;;;;;;;14.27;8.27;;;;;;;15.57;96.23;102272.81;5116053;28;20032;-62
2022/07/11 02:15:28;;;;;;;15.68;9.55;;;;;;;15.52;96.60;102268.44;5116122;28;20036;-61
2022/07/11 02:17:56;;;;;;;13.93;8.40;;;;;;;15.56;96.42;102257.00;5116111;28;20028;-61
2022/07/11 02:20:24;;;;;;;14.23;9.63;;;;;;;15.54;96.56;102254.34;5115873;28;20077;-61
2022/07/11 02:22:50;;;;;;;14.05;9.43;;;;;;;15.50;96.90;102262.28;5115572;28;20487;-61
2022/07/11 02:25:16;;;;;;;12.30;9.68;;;;;;;15.56;96.80;102260.50;5116163;28;20020;-61
2022/07/11 02:27:41;;;;;;;13.68;9.38;;;;;;;15.58;96.38;102257.84;5115747;28;20074;-61
2022/07/11 02:30:07;;;;;;;17.15;10.50;;;;;;;15.51;97.04;102258.75;5115929;28;20446;-61
2022/07/11 02:32:33;;;;;;;13.30;9.43;;;;;;;15.51;97.38;102262.28;5115772;28;20031;-60
2022/07/11 02:34:58;;;;;;;15.05;8.90;;;;;;;15.57;97.00;102258.75;5115640;28;20059;-61
2022/07/11 02:37:23;;;;;;;17.35;10.00;;;;;;;15.52;97.12;102252.59;5116319;28;20106;-60
2022/07/11 02:39:48;;;;;;;14.57;10.13;;;;;;;15.43;97.43;102258.84;5115398;28;20039;-60
2022/07/11 02:42:14;;;;;;;14.17;9.83;;;;;;;15.42;97.36;102262.34;5115690;28;20032;-60
2022/07/11 02:44:39;;;;;;;14.00;9.45;;;;;;;15.34;98.05;102261.59;5115571;28;20600;-60
2022/07/11 02:47:05;;;;;;;14.65;9.90;;;;;;;15.39;97.79;102264.19;5115456;28;20077;-60
2022/07/11 02:49:32;;;;;;;12.73;8.73;;;;;;;15.43;97.32;102258.84;5115421;28;20031;-60
2022/07/11 02:51:57;;;;;;;14.38;9.73;;;;;;;15.44;97.01;102255.31;5115440;28;20118;-61
2022/07/11 02:54:22;;;;;;;16.20;9.70;;;;;;;15.45;97.25;102258.81;5115320;28;20084;-61
2022/07/11 02:56:48;;;;;;;12.95;9.63;;;;;;;15.44;97.31;102255.31;5115435;28;20257;-61
2022/07/11 02:59:13;;;;;;;17.30;10.18;;;;;;;15.49;97.66;102258.78;5115225;28;20035;-61
2022/07/11 03:01:41;;;;;;;13.88;10.10;;;;;;;15.49;97.67;102252.63;5115371;28;20039;-61
2022/07/11 03:04:06;;;;;;;12.90;9.38;;;;;;;15.61;98.07;102250.75;5115230;28;20031;-62
2022/07/11 03:06:31;;;;;;;16.92;10.60;;;;;;;15.66;97.82;102251.56;5115029;28;20107;-61
2022/07/11 03:08:57;;;;;;;14.77;9.95;;;;;;;15.67;97.71;102252.44;5115760;28;20028;-61
2022/07/11 03:11:22;;;;;;;14.70;10.65;;;;;;;15.75;97.60;102255.00;5115150;28;20067;-62
2022/07/11 03:13:47;;;;;;;16.63;11.13;;;;;;;15.85;97.52;102256.63;5115309;28;20057;-61
2022/07/11 03:16:12;;;;;;;17.95;10.68;;;;;;;15.81;97.34;102241.72;5114595;28;20122;-62
2022/07/11 03:18:38;;;;;;;15.65;10.10;;;;;;;15.89;97.37;102261.84;5115258;28;20031;-62
2022/07/11 03:21:03;;;;;;;16.98;9.93;;;;;;;15.85;97.93;102265.41;5115057;28;20023;-61
2022/07/11 03:23:28;;;;;;;17.08;10.10;;;;;;;15.92;97.93;102260.94;5115224;28;20402;-61
2022/07/11 03:25:54;;;;;;;13.45;10.10;;;;;;;15.95;97.47;102264.41;5114947;28;20032;-61
2022/07/11 03:28:19;;;;;;;14.93;10.38;;;;;;;16.01;97.43;102274.88;5115133;28;20138;-62
2022/07/11 03:30:45;;;;;;;15.95;10.02;;;;;;;15.98;97.30;102269.66;5115046;28;20059;-61
2022/07/11 03:33:10;;;;;;;15.32;9.45;;;;;;;15.98;97.61;102268.78;5115269;28;20422;-61
2022/07/11 03:35:41;;;;;;;14.45;9.40;;;;;;;16.01;97.40;102276.66;5115170;28;20055;-61
2022/07/11 03:38:08;;;;;;;15.33;10.20;;;;;;;16.02;97.49;102270.47;5115372;28;20043;-62
2022/07/11 03:40:33;;;;;;;17.40;10.57;;;;;;;16.05;97.13;102265.16;5114757;28;20442;-62
2022/07/11 03:42:58;;;;;;;16.33;10.48;;;;;;;16.08;96.78;102270.41;5115071;28;20052;-61
2022/07/11 03:45:24;;;;;;;17.00;9.50;;;;;;;16.10;96.61;102262.47;5115269;28;20023;-61
2022/07/11 03:47:49;;;;;;;17.38;10.10;;;;;;;16.13;96.25;102268.56;5117490;28;20143;-62
2022/07/11 03:50:15;;;;;;;16.10;9.48;;;;;;;16.10;96.73;102263.34;5118767;28;20031;-61
2022/07/11 03:52:40;;;;;;;15.35;9.65;;;;;;;16.10;96.51;102273.03;5118660;28;20024;-62
2022/07/11 03:55:07;;;;;;;18.70;10.07;;;;;;;16.10;96.65;102273.03;5118714;28;20031;-60
2022/07/11 03:57:33;;;;;;;13.23;9.88;;;;;;;16.13;96.74;102271.19;5118738;28;20406;-61
2022/07/11 03:59:59;;;;;;;13.98;8.82;;;;;;;16.13;96.87;102265.03;5118874;28;20042;-60
2022/07/11 04:02:24;;;;;;;15.52;9.80;;;;;;;16.15;96.67;102261.50;5118685;28;20028;-61
2022/07/11 04:04:50;;;;;;;16.42;9.32;;;;;;;16.15;96.60;102271.19;5118689;28;20041;-61
2022/07/11 04:07:15;;;;;;;14.60;9.13;;;;;;;16.16;96.02;102271.16;5118289;28;20350;-61
2022/07/11 04:09:40;;;;;;;17.08;8.98;;;;;;;16.19;95.96;102267.63;5118518;28;20036;-60
2022/07/11 04:12:06;;;;;;;13.85;8.85;;;;;;;16.19;95.97;102268.50;5118279;28;20028;-61
2022/07/11 04:14:31;;;;;;;12.90;8.70;;;;;;;16.20;95.80;102267.59;5118533;28;20039;-62
2022/07/11 04:16:57;;;;;;;12.48;8.93;;;;;;;16.20;96.59;102262.31;5118419;28;20095;-62
2022/07/11 04:19:23;;;;;;;11.60;8.43;;;;;;;16.28;95.66;102268.34;5118509;28;20118;-62
2022/07/11 04:21:49;;;;;;;11.02;7.53;;;;;;;16.29;95.78;102263.94;5118335;28;20306;-60
2022/07/11 04:24:14;;;;;;;13.45;8.27;;;;;;;16.30;95.66;102266.56;5118595;28;20038;-61
2022/07/11 04:26:40;;;;;;;12.45;8.48;;;;;;;16.31;95.71;102265.66;5118200;28;20031;-61
2022/07/11 04:29:05;;;;;;;11.98;8.52;;;;;;;16.29;95.56;102264.81;5117951;28;20370;-60
2022/07/11 04:31:30;;;;;;;16.15;9.13;;;;;;;16.31;95.49;102265.66;5118132;28;20039;-60
2022/07/11 04:33:56;;;;;;;16.63;8.65;;;;;;;16.27;95.90;102263.13;5118165;28;20437;-61
2022/07/11 04:36:22;;;;;;;11.27;7.93;;;;;;;16.32;96.18;102266.53;5118501;28;20152;-61
2022/07/11 04:38:47;;;;;;;14.88;8.45;;;;;;;16.26;95.81;102256.97;5118181;28;20028;-60
2022/07/11 04:41:12;;;;;;;13.95;8.93;;;;;;;16.31;95.86;102267.44;5117802;28;20038;-61
2022/07/11 04:43:38;;;;;;;14.13;8.55;;;;;;;16.31;96.19;102273.59;5117920;28;20092;-60
2022/07/11 04:46:06;;;;;;;12.10;8.20;;;;;;;16.34;95.57;102270.91;5117904;28;20038;-61
2022/07/11 04:48:31;;;;;;;11.98;7.93;;;;;;;16.41;95.48;102278.75;5117729;28;20089;-61
2022/07/11 04:50:57;;;;;;;15.20;8.10;;;;;;;16.41;95.18;102278.75;5117288;28;20343;-60
2022/07/11 04:53:23;;;;;;;11.75;7.68;;;;;;;16.41;95.31;102284.91;5117513;28;20043;-60
2022/07/11 04:55:49;;;;;;;11.05;7.68;;;;;;;16.41;95.65;102287.56;5117602;28;20048;-63
2022/07/11 04:58:14;;;;;;;12.60;7.90;;;;;;;16.39;95.47;102285.81;5117532;28;20070;-61
2022/07/11 05:00:39;;;;;;;13.20;7.88;;;;;;;16.35;95.88;102285.88;5117626;28;20081;-61
2022/07/11 05:03:05;;;;;;;15.07;8.32;;;;;;;16.31;96.28;102289.44;5117356;28;20052;-61
2022/07/11 05:05:30;;;;;;;11.00;7.35;;;;;;;16.29;96.26;102293.00;5117049;28;20127;-60
2022/07/11 05:07:55;;;;;;;11.93;7.90;;;;;;;16.30;96.37;102294.75;5117260;28;20039;-58
2022/07/11 05:10:21;;;;;;;12.30;7.75;;;;;;;16.29;96.58;102296.50;5097622;28;20059;-59
2022/07/11 05:12:46;;;;;;;13.00;7.32;;;;;;;16.24;96.42;102281.63;5096889;28;20080;-60
2022/07/11 05:15:11;;;;;;;15.07;8.07;;;;;;;16.29;97.04;102296.50;5096913;28;20032;-60
2022/07/11 05:17:36;;;;;;;11.50;7.75;;;;;;;16.39;96.68;102296.41;5096904;28;20047;-60
2022/07/11 05:20:03;;;;;;;11.13;7.40;;;;;;;16.42;96.71;102301.66;5096357;28;20028;-58
2022/07/11 05:22:28;;;;;;;10.55;7.88;;;;;;;16.35;96.70;102291.16;5096389;28;20051;-58
2022/07/11 05:24:53;;;;;;;12.95;8.15;;;;;;;16.37;96.88;102299.06;5096398;28;20032;-58
2022/07/11 05:27:18;;;;;;;12.95;7.35;;;;;;;16.32;97.29;102307.03;5096613;28;20036;-59
2022/07/11 05:29:44;;;;;;;10.63;7.85;;;;;;;16.34;97.30;102297.31;5096319;28;20052;-59
2022/07/11 05:32:10;;;;;;;13.02;7.38;;;;;;;16.36;97.42;102302.59;5096333;28;20100;-59
2022/07/11 05:34:35;;;;;;;12.05;8.40;;;;;;;16.41;97.63;102305.19;5096532;28;20039;-59
2022/07/11 05:37:00;;;;;;;12.02;8.30;;;;;;;16.41;97.46;102300.78;5104922;28;20442;-59
2022/07/11 05:39:26;;;;;;;12.38;8.15;;;;;;;16.42;98.13;102306.94;5107365;28;20038;-59
2022/07/11 05:41:51;;;;;;;13.52;8.25;;;;;;;16.49;97.96;102308.56;5115749;28;20556;-59
2022/07/11 05:44:18;;;;;;;13.70;8.35;;;;;;;16.51;97.67;102309.41;5116783;28;20027;-59
2022/07/11 05:46:44;;;;;;;14.25;8.65;;;;;;;16.47;98.54;102311.22;5116703;28;20034;-59
2022/07/11 05:49:09;;;;;;;14.50;8.85;;;;;;;16.48;98.31;102315.63;5116470;28;20039;-59
2022/07/11 05:51:36;;;;;;;13.40;7.95;;;;;;;16.57;98.35;102309.34;5116545;28;20031;-59
2022/07/11 05:54:01;;;;;;;15.30;8.43;;;;;;;16.59;98.20;102312.84;5116437;28;20417;-60
2022/07/11 05:56:26;;;;;;;9.77;7.93;;;;;;;16.56;98.06;102318.16;5116683;28;20024;-58
2022/07/11 05:58:52;;;;;;;11.70;8.95;;;;;;;16.57;98.51;102315.50;5116625;28;20032;-58
2022/07/11 06:01:17;;;;;;;14.40;8.57;;;;;;;16.62;98.40;102312.81;5116592;28;20019;-59
2022/07/11 06:03:43;;;;;;;13.68;8.73;;;;;;;16.59;98.30;102315.47;5111294;28;20486;-57
2022/07/11 06:06:10;;;;;;;13.07;8.95;;;;;;;16.56;97.80;102308.47;5095867;28;20090;-58
2022/07/11 06:08:41;;;;;;;15.98;8.45;;;;;;;16.58;98.68;102311.09;5096068;28;20095;-58
2022/07/11 06:11:08;;;;;;;11.77;8.17;;;;;;;16.67;97.80;102318.91;5095456;28;20028;-58
2022/07/11 06:13:33;;;;;;;10.82;8.60;;;;;;;16.74;97.92;102319.69;5095922;28;20290;-59
2022/07/11 06:15:58;;;;;;;10.70;7.95;;;;;;;16.74;97.95;102323.22;5096097;28;20066;-59
2022/07/11 06:18:23;;;;;;;12.05;8.40;;;;;;;16.71;98.06;102333.81;5095544;28;20035;-58
2022/07/11 06:20:49;;;;;;;10.40;7.80;;;;;;;16.79;97.29;102334.59;5095419;28;20413;-59
2022/07/11 06:23:15;;;;;;;10.93;7.68;;;;;;;16.77;96.82;102333.75;5095233;28;20039;-58
2022/07/11 06:25:40;;;;;;;13.07;7.65;;;;;;;16.76;97.44;102332.00;5095722;28;20032;-60
2022/07/11 06:28:05;;;;;;;14.75;9.35;;;;;;;16.70;97.29;102332.09;5095326;28;20074;-58
2022/07/11 06:30:31;;;;;;;14.75;9.57;;;;;;;16.68;98.41;102340.03;5095058;28;20123;-58
2022/07/11 06:32:57;;;;;;;11.75;9.15;;;;;;;16.74;98.12;102331.16;5095645;28;20055;-58
2022/07/11 06:35:23;;;;;;;12.80;9.48;;;;;;;16.76;97.77;102329.34;5095701;28;20055;-58
2022/07/11 06:37:48;;;;;;;13.07;9.20;;;;;;;16.78;97.57;102332.84;5095513;28;20111;-58
2022/07/11 06:40:17;;;;;;;11.38;8.63;;;;;;;16.80;97.82;102330.16;5095208;28;20066;-59
2022/07/11 06:42:42;;;;;;;11.55;8.18;;;;;;;16.82;97.35;102337.16;5095554;28;20082;-58
2022/07/11 06:45:08;;;;;;;9.95;7.40;;;;;;;16.88;96.69;102331.81;5095430;28;20443;-57
2022/07/11 06:47:33;;;;;;;11.65;7.63;;;;;;;16.80;97.38;102338.09;5095117;28;20028;-57
2022/07/11 06:49:58;;;;;;;10.65;6.93;;;;;;;16.76;97.07;102341.69;5095088;28;20036;-59
2022/07/11 06:52:23;;;;;;;7.73;6.00;;;;;;;16.70;97.75;102334.72;5095134;28;20024;-58
2022/07/11 06:54:49;;;;;;;7.50;5.43;;;;;;;16.67;98.07;102332.13;5095531;28;20269;-59
2022/07/11 06:57:14;;;;;;;7.07;5.13;;;;;;;16.77;98.02;102333.75;5095368;28;20383;-59
2022/07/11 06:59:39;;;;;;;8.17;5.40;;;;;;;16.83;97.47;102330.13;5095230;28;20278;-58
2022/07/11 07:02:05;;;;;;;8.20;5.57;;;;;;;16.88;97.27;102323.00;5094945;28;20326;-59
2022/07/11 07:04:30;;;;;;;8.80;5.03;;;;;;;16.96;96.63;102329.91;5094692;28;20286;-59
2022/07/11 07:06:55;;;;;;;6.82;5.10;;;;;;;17.04;96.65;102327.13;5095250;28;20028;-59
2022/07/11 07:09:21;;;;;;;6.75;4.88;;;;;;;17.16;95.81;102321.63;5094697;28;20024;-58
2022/07/11 07:11:47;;;;;;;6.68;5.13;;;;;;;17.28;95.14;102325.84;5094987;28;20023;-58
2022/07/11 07:14:12;;;;;;;5.50;4.90;;;;;;;17.34;94.59;102323.06;5095233;28;20039;-58
2022/07/11 07:16:39;;;;;;;8.43;4.68;;;;;;;17.40;94.13;102320.34;5094882;28;20028;-58
2022/07/11 07:19:04;;;;;;;6.15;5.15;;;;;;;17.49;93.81;102322.78;5094763;28;20071;-59
2022/07/11 07:21:30;;;;;;;5.80;4.70;;;;;;;17.62;93.45;102327.00;5095094;28;20083;-58
2022/07/11 07:23:55;;;;;;;6.47;4.63;;;;;;;17.72;92.29;102315.34;5099216;28;20395;-58
2022/07/11 07:26:21;;;;;;;5.80;5.20;;;;;;;17.78;91.98;102318.78;5099163;28;20020;-60
2022/07/11 07:28:46;;;;;;;5.20;4.70;;;;;;;17.86;91.54;102311.53;5099366;28;20159;-58
2022/07/11 07:31:11;;;;;;;5.70;4.97;;;;;;;18.00;90.53;102315.69;5099554;28;20136;-58
2022/07/11 07:33:37;;;;;;;7.30;5.97;;;;;;;17.97;89.84;102314.84;5098911;28;20314;-58
2022/07/11 07:36:02;;;;;;;7.38;6.10;;;;;;;17.93;89.59;102302.56;5098792;28;20454;-59
2022/07/11 07:38:28;;;;;;;6.57;5.43;;;;;;;18.18;89.02;102309.13;5098933;28;20028;-59
2022/07/11 07:40:53;;;;;;;6.60;5.90;;;;;;;18.27;88.07;102308.03;5098623;28;20103;-58
2022/07/11 07:43:19;;;;;;;7.72;5.78;;;;;;;18.32;87.72;102316.75;5098719;28;20036;-58
2022/07/11 07:45:44;;;;;;;7.30;5.33;;;;;;;18.29;87.68;102319.47;5098770;28;20043;-58
2022/07/11 07:48:09;;;;;;;9.35;5.93;;;;;;;18.30;86.95;102316.78;5098345;28;20296;-58
2022/07/11 07:50:34;;;;;;;7.28;5.32;;;;;;;18.44;86.37;102319.13;5098925;28;20031;-59
2022/07/11 07:53:00;;;;;;;5.30;4.33;;;;;;;18.41;85.93;102330.66;5098714;28;20111;-59
2022/07/11 07:55:25;;;;;;;5.65;4.38;;;;;;;18.42;85.11;102324.47;5098916;28;20284;-59
2022/07/11 07:57:51;;;;;;;7.75;4.53;;;;;;;18.39;85.85;102329.81;5098816;28;20051;-59
2022/07/11 08:03:08;;;;;;;6.10;3.95;;;;;;;18.53;84.53;102328.66;5098329;28;20113;-58
2022/07/11 08:05:33;;;;;;;6.22;4.28;;;;;;;18.62;84.98;102331.13;5098469;28;20028;-59
2022/07/11 08:07:59;;;;;;;5.10;3.92;;;;;;;18.71;83.84;102339.72;5098486;28;20032;-58
2022/07/11 08:10:24;;;;;;;5.43;4.63;;;;;;;18.77;83.61;102333.41;5098284;28;20415;-59
2022/07/11 08:12:50;;;;;;;5.00;4.50;;;;;;;18.76;83.48;102331.66;5097500;28;20042;-59
2022/07/11 08:15:15;;;;;;;6.70;5.15;;;;;;;18.83;82.79;102333.28;5094778;28;20036;-58
2022/07/11 08:17:41;;;;;;;5.72;4.70;;;;;;;18.93;82.29;102337.44;5094403;28;20044;-59
2022/07/11 08:20:07;;;;;;;4.47;3.47;;;;;;;19.01;82.18;102335.50;5094665;28;20046;-58
2022/07/11 08:22:32;;;;;;;5.35;4.00;;;;;;;19.01;81.30;102334.63;5094743;28;20035;-58
2022/07/11 08:24:58;;;;;;;5.82;3.90;;;;;;;18.99;81.62;102334.66;5094741;28;20036;-58
2022/07/11 08:27:23;;;;;;;5.57;3.92;;;;;;;19.04;82.17;102335.41;5094672;28;20040;-59
2022/07/11 08:29:48;;;;;;;5.80;4.28;;;;;;;19.11;81.89;102331.69;5094061;28;20399;-58
2022/07/11 08:32:13;;;;;;;6.03;4.25;;;;;;;19.19;81.14;102335.94;5094044;28;20332;-59
2022/07/11 08:34:39;;;;;;;5.18;4.22;;;;;;;19.31;81.05;102333.84;5094240;28;20039;-58
2022/07/11 08:37:04;;;;;;;4.40;3.22;;;;;;;19.44;80.44;102339.69;5094254;28;20042;-59
2022/07/11 08:39:29;;;;;;;4.53;3.90;;;;;;;19.50;78.99;102338.69;5094560;28;20329;-58
2022/07/11 08:41:56;;;;;;;3.95;3.50;;;;;;;19.57;79.79;102338.47;5094011;28;20447;-58
2022/07/11 08:44:23;;;;;;;5.18;4.13;;;;;;;19.80;78.35;102321.91;5094005;28;20036;-58
2022/07/11 08:46:50;;;;;;;6.32;4.68;;;;;;;19.86;78.10;102329.72;5094260;28;20028;-58
2022/07/11 08:49:15;;;;;;;5.95;4.63;;;;;;;19.94;77.66;102325.03;5094543;28;20050;-59
2022/07/11 08:51:41;;;;;;;5.68;4.10;;;;;;;19.89;77.95;102324.31;5094156;28;20044;-58
2022/07/11 08:54:07;;;;;;;5.68;4.60;;;;;;;19.92;77.90;102326.00;5093724;28;20377;-58
2022/07/11 08:56:32;;;;;;;5.70;4.80;;;;;;;20.24;76.75;102330.41;5094092;28;20036;-59
2022/07/11 08:58:59;;;;;;;6.90;5.10;;;;;;;20.41;75.81;102331.66;5094019;28;20028;-59
2022/07/11 09:01:30;;;;;;;6.25;5.38;;;;;;;20.27;76.41;102316.97;5093924;28;20044;-58
2022/07/11 09:03:56;;;;;;;7.63;5.47;;;;;;;20.32;76.05;102325.69;5093842;28;20173;-58
2022/07/11 09:06:21;;;;;;;7.50;5.38;;;;;;;20.19;76.27;102324.34;5093530;28;20119;-58
2022/07/11 09:08:47;;;;;;;8.55;5.53;;;;;;;20.16;76.82;102309.34;5093952;28;20035;-58
2022/07/11 09:11:12;;;;;;;7.38;5.90;;;;;;;20.30;76.97;102314.25;5093764;28;20039;-59
2022/07/11 09:13:37;;;;;;;9.02;6.88;;;;;;;20.34;76.66;102323.88;5093535;28;20039;-60
2022/07/11 09:16:06;;;;;;;9.38;6.28;;;;;;;20.25;77.24;102318.84;5093619;28;20031;-58
2022/07/11 09:18:33;;;;;;;8.15;7.28;;;;;;;20.40;75.81;102321.06;5093344;28;20446;-59
2022/07/11 09:26:38;;;;;;;13.35;8.57;;;;;;;20.88;73.75;102317.75;5093356;28;20019;-58
2022/07/11 09:29:06;;;;;;;10.88;9.00;;;;;;;20.90;73.76;102324.78;5093058;28;20516;-59
2022/07/11 09:31:33;;;;;;;11.15;7.97;;;;;;;21.10;73.19;102314.34;5092893;28;20435;-58
2022/07/11 09:33:59;;;;;;;10.18;7.70;;;;;;;21.39;71.87;102309.81;5093334;28;20032;-59
2022/07/11 09:36:43;;;;;;;11.75;8.27;;;;;;;21.42;72.20;102313.25;5093006;28;20046;-59
2022/07/11 09:39:23;;;;;;;10.30;7.70;;;;;;;21.45;72.10;102312.28;5093038;28;20028;-58
2022/07/11 09:41:51;;;;;;;12.85;7.75;;;;;;;21.37;70.53;102317.00;5093018;28;20473;-59
2022/07/11 09:44:19;;;;;;;9.65;8.32;;;;;;;21.30;71.44;102310.16;5092405;28;20078;-59
2022/07/11 09:46:49;;;;;;;10.77;7.68;;;;;;;21.13;72.34;102316.00;5093125;28;20465;-59
2022/07/11 09:49:16;;;;;;;10.20;7.38;;;;;;;20.97;72.48;102315.66;5092645;28;20443;-59
2022/07/11 09:51:41;;;;;;;12.32;7.72;;;;;;;20.85;72.58;102316.94;5092748;28;20039;-59
2022/07/11 09:54:08;;;;;;;11.27;7.55;;;;;;;20.86;72.35;102320.47;5093060;28;20047;-59
2022/07/11 09:56:39;;;;;;;11.70;7.80;;;;;;;20.74;74.00;102315.56;5092899;28;20059;-58
2022/07/11 09:59:05;;;;;;;11.10;8.37;;;;;;;20.64;74.15;102311.44;5093021;28;20038;-59
2022/07/11 10:01:31;;;;;;;11.25;8.50;;;;;;;20.47;75.37;102312.84;5092741;28;20319;-59
2022/07/11 10:03:58;;;;;;;13.48;9.10;;;;;;;20.34;75.49;102322.09;5092438;28;20032;-59
2022/07/11 10:06:23;;;;;;;10.30;8.50;;;;;;;20.26;76.53;102316.13;5092887;28;20119;-60
2022/07/11 10:08:51;;;;;;;10.63;7.97;;;;;;;20.43;76.53;102310.34;5092650;28;20139;-59
2022/07/11 10:11:16;;;;;;;10.18;8.10;;;;;;;20.43;76.61;102313.00;5092221;28;20048;-60
2022/07/11 10:13:43;;;;;;;13.15;7.65;;;;;;;20.43;76.50;102323.63;5092681;28;20059;-59
2022/07/11 10:16:23;;;;;;;9.82;7.35;;;;;;;20.48;76.32;102321.69;5092352;28;20402;-60
2022/07/11 10:19:16;;;;;;;11.45;7.30;;;;;;;20.57;76.37;102317.88;5092043;28;20044;-58
2022/07/11 10:21:51;;;;;;;10.40;7.68;;;;;;;20.55;76.22;102320.59;5092380;28;20061;-59
2022/07/11 10:24:25;;;;;;;10.63;7.43;;;;;;;20.68;75.63;102319.28;5092378;28;20055;-59
2022/07/11 10:27:02;;;;;;;10.90;8.35;;;;;;;20.66;74.57;102317.56;5092288;28;20036;-59
2022/07/11 10:29:45;;;;;;;10.13;7.82;;;;;;;20.89;75.65;102324.81;5092184;28;20063;-58
2022/07/11 10:32:13;;;;;;;10.98;8.35;;;;;;;21.19;73.63;102322.03;5091937;28;20058;-58
2022/07/11 10:34:39;;;;;;;9.40;7.05;;;;;;;21.42;72.71;102321.25;5092072;28;20028;-58
2022/07/11 10:37:06;;;;;;;10.10;7.90;;;;;;;21.47;71.38;102327.25;5092115;28;20123;-59
2022/07/11 10:39:34;;;;;;;12.05;7.78;;;;;;;21.36;72.06;102333.91;5092096;28;20039;-59
2022/07/11 10:42:03;;;;;;;10.23;7.70;;;;;;;21.41;71.84;102313.31;5091795;28;20089;-57
2022/07/11 10:44:48;;;;;;;12.63;8.20;;;;;;;21.65;71.78;102324.88;5091947;28;20040;-58
2022/07/11 10:47:41;;;;;;;10.43;8.25;;;;;;;21.59;71.29;102325.97;5092012;28;20043;-59
2022/07/11 10:50:21;;;;;;;9.27;7.57;;;;;;;21.40;72.04;102328.41;5098397;28;20097;-58
2022/07/11 10:52:55;;;;;;;10.10;7.35;;;;;;;21.61;71.61;102326.81;5112296;28;20040;-60
2022/07/11 10:55:37;;;;;;;10.68;7.22;;;;;;;21.51;70.53;102330.69;5111930;28;20047;-58
2022/07/11 10:58:10;;;;;;;8.80;7.43;;;;;;;21.37;71.58;102332.97;5111975;28;20073;-58
2022/07/11 11:00:36;;;;;;;10.25;7.70;;;;;;;21.46;71.58;102324.69;5111908;28;20228;-59
2022/07/11 11:03:11;;;;;;;8.43;6.55;;;;;;;21.63;71.10;102319.63;5112013;28;20513;-59
2022/07/11 11:05:54;;;;;;;8.00;6.10;;;;;;;21.75;71.09;102320.97;5093843;28;20395;-60
2022/07/11 11:08:31;;;;;;;8.40;6.00;;;;;;;21.84;70.76;102325.94;5112024;28;20027;-58
2022/07/11 11:10:56;;;;;;;6.70;5.07;;;;;;;21.70;71.48;102323.78;5111952;28;20122;-60
2022/07/11 11:13:23;;;;;;;7.10;4.93;;;;;;;21.57;70.59;102327.81;5112005;28;20556;-59
2022/07/11 11:15:49;;;;;;;6.63;4.53;;;;;;;21.47;71.36;102326.44;5112176;28;20396;-58
2022/07/11 11:18:24;;;;;;;6.82;4.70;;;;;;;21.51;71.84;102331.56;5112078;28;20039;-59
2022/07/11 11:21:08;;;;;;;7.03;4.40;;;;;;;21.67;71.68;102328.34;5111659;28;20047;-60
2022/07/11 11:23:44;;;;;;;6.75;5.00;;;;;;;21.91;70.77;102330.13;5111648;28;20064;-59
2022/07/11 11:26:18;;;;;;;6.38;4.93;;;;;;;21.91;70.04;102335.47;5111762;28;20303;-60
2022/07/11 11:28:59;;;;;;;9.68;5.75;;;;;;;21.79;70.04;102331.47;5111713;28;20051;-61